Basom, New York
Current Conditions -  °F | °C
As of 10:54 AM on Friday 24 Oct 2014 (Local Time) from KBUF Reporting Station
Few Clouds Few Clouds  
Wind Chill: 50°   Ceiling: Unl
Heat Index: 50°   Visibility: 10mi
Dew Point: 41°   Wind: 8mph
Humidity: 71%   Direction: 240°WSW
Pressure: 30.03"   Gusts: NA
Location:  43.07°N, 78.39°W
Report Text: KBUF 241454Z 24007KT 10SM FEW017 FEW230 FEW280 10/05 A3003 RMK AO2 SLP171 T01000050 58005
Loading
Personal Weather Stations






























Interactive Weather Map
Tropical Storm Tracking
New forecast layout! Learn more

10-Day Weather Forecast

Advertisements
Track Severe Weather on mobile